sensor_id;sensor_type;location;lat;lon;timestamp;P1;durP1;ratioP1;P2;durP2;ratioP2
24801;SDS011;12898;50.520;12.152;2023-07-13T00:00:34;4.50;;;2.50;;
24801;SDS011;12898;50.520;12.152;2023-07-13T00:03:01;5.45;;;2.88;;
24801;SDS011;12898;50.520;12.152;2023-07-13T00:05:27;6.10;;;2.65;;
24801;SDS011;12898;50.520;12.152;2023-07-13T00:07:53;4.68;;;2.80;;
24801;SDS011;12898;50.520;12.152;2023-07-13T00:10:19;5.93;;;2.90;;
24801;SDS011;12898;50.520;12.152;2023-07-13T00:12:46;4.22;;;3.10;;
24801;SDS011;12898;50.520;12.152;2023-07-13T00:15:20;5.15;;;3.20;;
24801;SDS011;12898;50.520;12.152;2023-07-13T00:17:50;5.80;;;3.17;;
24801;SDS011;12898;50.520;12.152;2023-07-13T00:20:18;6.85;;;3.03;;
24801;SDS011;12898;50.520;12.152;2023-07-13T00:22:47;4.93;;;3.15;;
24801;SDS011;12898;50.520;12.152;2023-07-13T00:25:14;4.25;;;2.65;;
24801;SDS011;12898;50.520;12.152;2023-07-13T00:27:41;6.18;;;3.10;;
24801;SDS011;12898;50.520;12.152;2023-07-13T00:30:09;5.25;;;3.20;;
24801;SDS011;12898;50.520;12.152;2023-07-13T00:32:35;5.20;;;2.70;;
24801;SDS011;12898;50.520;12.152;2023-07-13T00:35:01;7.13;;;2.97;;
24801;SDS011;12898;50.520;12.152;2023-07-13T00:37:29;5.80;;;2.70;;
24801;SDS011;12898;50.520;12.152;2023-07-13T00:39:55;6.65;;;3.10;;
24801;SDS011;12898;50.520;12.152;2023-07-13T00:42:21;5.45;;;2.70;;
24801;SDS011;12898;50.520;12.152;2023-07-13T00:45:03;3.80;;;2.67;;
24801;SDS011;12898;50.520;12.152;2023-07-13T00:47:51;3.97;;;2.60;;
24801;SDS011;12898;50.520;12.152;2023-07-13T00:50:18;4.40;;;2.90;;
24801;SDS011;12898;50.520;12.152;2023-07-13T00:52:47;6.78;;;3.10;;
24801;SDS011;12898;50.520;12.152;2023-07-13T00:55:16;8.30;;;2.97;;
24801;SDS011;12898;50.520;12.152;2023-07-13T00:57:43;5.82;;;2.60;;
24801;SDS011;12898;50.520;12.152;2023-07-13T01:00:09;5.70;;;3.00;;
24801;SDS011;12898;50.520;12.152;2023-07-13T01:02:41;4.72;;;2.90;;
24801;SDS011;12898;50.520;12.152;2023-07-13T01:05:12;5.38;;;3.20;;
24801;SDS011;12898;50.520;12.152;2023-07-13T01:07:41;4.50;;;2.53;;
24801;SDS011;12898;50.520;12.152;2023-07-13T01:10:09;5.65;;;3.10;;
24801;SDS011;12898;50.520;12.152;2023-07-13T01:12:37;4.68;;;2.80;;
24801;SDS011;12898;50.520;12.152;2023-07-13T01:15:03;4.35;;;2.80;;
24801;SDS011;12898;50.520;12.152;2023-07-13T01:17:32;5.35;;;2.92;;
24801;SDS011;12898;50.520;12.152;2023-07-13T01:19:59;5.72;;;2.70;;
24801;SDS011;12898;50.520;12.152;2023-07-13T01:22:25;8.05;;;3.10;;
24801;SDS011;12898;50.520;12.152;2023-07-13T01:24:52;4.82;;;3.08;;
24801;SDS011;12898;50.520;12.152;2023-07-13T01:27:23;4.82;;;2.83;;
24801;SDS011;12898;50.520;12.152;2023-07-13T01:29:51;5.40;;;3.08;;
24801;SDS011;12898;50.520;12.152;2023-07-13T01:32:19;4.10;;;2.72;;
24801;SDS011;12898;50.520;12.152;2023-07-13T01:34:49;6.35;;;3.28;;
24801;SDS011;12898;50.520;12.152;2023-07-13T01:37:16;4.65;;;3.00;;
24801;SDS011;12898;50.520;12.152;2023-07-13T01:39:42;4.28;;;3.10;;
24801;SDS011;12898;50.520;12.152;2023-07-13T01:42:08;5.85;;;3.28;;
24801;SDS011;12898;50.520;12.152;2023-07-13T01:44:34;6.70;;;3.00;;
24801;SDS011;12898;50.520;12.152;2023-07-13T01:47:00;3.83;;;2.97;;
24801;SDS011;12898;50.520;12.152;2023-07-13T01:49:26;4.93;;;2.90;;
24801;SDS011;12898;50.520;12.152;2023-07-13T01:51:52;5.30;;;2.90;;
24801;SDS011;12898;50.520;12.152;2023-07-13T01:54:17;6.18;;;3.25;;
24801;SDS011;12898;50.520;12.152;2023-07-13T01:56:43;5.88;;;3.20;;
24801;SDS011;12898;50.520;12.152;2023-07-13T01:59:09;4.97;;;2.80;;
24801;SDS011;12898;50.520;12.152;2023-07-13T02:01:35;5.97;;;3.05;;
24801;SDS011;12898;50.520;12.152;2023-07-13T02:04:00;3.97;;;2.75;;
24801;SDS011;12898;50.520;12.152;2023-07-13T02:06:27;6.20;;;3.08;;
24801;SDS011;12898;50.520;12.152;2023-07-13T02:08:53;5.82;;;3.00;;
24801;SDS011;12898;50.520;12.152;2023-07-13T02:11:19;5.80;;;2.92;;
24801;SDS011;12898;50.520;12.152;2023-07-13T02:13:44;5.55;;;3.00;;
24801;SDS011;12898;50.520;12.152;2023-07-13T02:16:10;5.65;;;2.90;;
24801;SDS011;12898;50.520;12.152;2023-07-13T02:18:36;4.82;;;2.80;;
24801;SDS011;12898;50.520;12.152;2023-07-13T02:21:02;4.88;;;2.95;;
24801;SDS011;12898;50.520;12.152;2023-07-13T02:23:28;5.93;;;2.97;;
24801;SDS011;12898;50.520;12.152;2023-07-13T02:25:58;7.82;;;3.45;;
24801;SDS011;12898;50.520;12.152;2023-07-13T02:28:29;6.60;;;2.88;;
24801;SDS011;12898;50.520;12.152;2023-07-13T02:30:55;6.32;;;3.45;;
24801;SDS011;12898;50.520;12.152;2023-07-13T02:33:36;4.97;;;3.15;;
24801;SDS011;12898;50.520;12.152;2023-07-13T02:36:01;6.18;;;3.10;;
24801;SDS011;12898;50.520;12.152;2023-07-13T02:38:28;6.85;;;3.25;;
24801;SDS011;12898;50.520;12.152;2023-07-13T02:40:53;4.43;;;3.10;;
24801;SDS011;12898;50.520;12.152;2023-07-13T02:43:19;5.75;;;2.65;;
24801;SDS011;12898;50.520;12.152;2023-07-13T02:45:45;4.82;;;3.22;;
24801;SDS011;12898;50.520;12.152;2023-07-13T02:48:11;6.10;;;3.30;;
24801;SDS011;12898;50.520;12.152;2023-07-13T02:50:38;8.20;;;4.18;;
24801;SDS011;12898;50.520;12.152;2023-07-13T02:53:04;5.32;;;2.90;;
24801;SDS011;12898;50.520;12.152;2023-07-13T02:55:29;6.35;;;3.55;;
24801;SDS011;12898;50.520;12.152;2023-07-13T02:57:55;4.65;;;3.05;;
24801;SDS011;12898;50.520;12.152;2023-07-13T03:00:20;6.78;;;3.72;;
24801;SDS011;12898;50.520;12.152;2023-07-13T03:02:46;4.80;;;3.33;;
24801;SDS011;12898;50.520;12.152;2023-07-13T03:05:11;6.90;;;3.63;;
24801;SDS011;12898;50.520;12.152;2023-07-13T03:07:37;6.40;;;3.38;;
24801;SDS011;12898;50.520;12.152;2023-07-13T03:10:03;5.70;;;3.35;;
24801;SDS011;12898;50.520;12.152;2023-07-13T03:12:29;8.27;;;3.72;;
24801;SDS011;12898;50.520;12.152;2023-07-13T03:14:55;5.32;;;3.70;;
24801;SDS011;12898;50.520;12.152;2023-07-13T03:17:22;4.07;;;3.40;;
24801;SDS011;12898;50.520;12.152;2023-07-13T03:19:47;6.70;;;3.58;;
24801;SDS011;12898;50.520;12.152;2023-07-13T03:22:17;6.85;;;3.65;;
24801;SDS011;12898;50.520;12.152;2023-07-13T03:24:43;6.32;;;3.55;;
24801;SDS011;12898;50.520;12.152;2023-07-13T03:27:09;6.15;;;3.60;;
24801;SDS011;12898;50.520;12.152;2023-07-13T03:29:34;3.90;;;3.17;;
24801;SDS011;12898;50.520;12.152;2023-07-13T03:32:00;8.18;;;3.90;;
24801;SDS011;12898;50.520;12.152;2023-07-13T03:34:26;5.13;;;3.38;;
24801;SDS011;12898;50.520;12.152;2023-07-13T03:36:55;5.03;;;3.65;;
24801;SDS011;12898;50.520;12.152;2023-07-13T03:39:21;6.32;;;3.30;;
24801;SDS011;12898;50.520;12.152;2023-07-13T03:41:47;5.80;;;3.78;;
24801;SDS011;12898;50.520;12.152;2023-07-13T03:44:15;5.72;;;3.90;;
24801;SDS011;12898;50.520;12.152;2023-07-13T03:46:42;7.13;;;3.38;;
24801;SDS011;12898;50.520;12.152;2023-07-13T03:49:07;5.75;;;3.80;;
24801;SDS011;12898;50.520;12.152;2023-07-13T03:51:33;5.88;;;3.58;;
24801;SDS011;12898;50.520;12.152;2023-07-13T03:53:59;6.28;;;3.78;;
24801;SDS011;12898;50.520;12.152;2023-07-13T03:56:24;9.23;;;3.83;;
24801;SDS011;12898;50.520;12.152;2023-07-13T03:58:50;6.88;;;3.70;;
24801;SDS011;12898;50.520;12.152;2023-07-13T04:01:17;9.43;;;3.83;;
24801;SDS011;12898;50.520;12.152;2023-07-13T04:03:44;5.18;;;3.53;;
24801;SDS011;12898;50.520;12.152;2023-07-13T04:06:18;9.43;;;3.90;;
24801;SDS011;12898;50.520;12.152;2023-07-13T04:08:49;6.95;;;3.97;;
24801;SDS011;12898;50.520;12.152;2023-07-13T04:11:19;6.38;;;4.18;;
24801;SDS011;12898;50.520;12.152;2023-07-13T04:13:47;7.35;;;3.95;;
24801;SDS011;12898;50.520;12.152;2023-07-13T04:16:13;12.68;;;4.50;;
24801;SDS011;12898;50.520;12.152;2023-07-13T04:18:40;7.32;;;3.83;;
24801;SDS011;12898;50.520;12.152;2023-07-13T04:21:06;8.90;;;4.43;;
24801;SDS011;12898;50.520;12.152;2023-07-13T04:23:33;11.00;;;4.00;;
24801;SDS011;12898;50.520;12.152;2023-07-13T04:25:59;7.70;;;4.10;;
24801;SDS011;12898;50.520;12.152;2023-07-13T04:28:25;10.65;;;4.20;;
24801;SDS011;12898;50.520;12.152;2023-07-13T04:30:51;6.35;;;3.65;;
24801;SDS011;12898;50.520;12.152;2023-07-13T04:33:17;10.85;;;4.07;;
24801;SDS011;12898;50.520;12.152;2023-07-13T04:35:47;6.45;;;3.78;;
24801;SDS011;12898;50.520;12.152;2023-07-13T04:38:14;11.77;;;4.35;;
24801;SDS011;12898;50.520;12.152;2023-07-13T04:40:42;7.00;;;4.18;;
24801;SDS011;12898;50.520;12.152;2023-07-13T04:43:10;5.32;;;3.85;;
24801;SDS011;12898;50.520;12.152;2023-07-13T04:45:35;8.20;;;4.47;;
24801;SDS011;12898;50.520;12.152;2023-07-13T04:48:01;8.88;;;4.82;;
24801;SDS011;12898;50.520;12.152;2023-07-13T04:50:27;5.85;;;4.25;;
24801;SDS011;12898;50.520;12.152;2023-07-13T04:52:53;7.90;;;4.70;;
24801;SDS011;12898;50.520;12.152;2023-07-13T04:55:19;12.38;;;4.75;;
24801;SDS011;12898;50.520;12.152;2023-07-13T04:57:46;9.23;;;4.55;;
24801;SDS011;12898;50.520;12.152;2023-07-13T05:00:12;9.93;;;4.60;;
24801;SDS011;12898;50.520;12.152;2023-07-13T05:02:40;9.07;;;5.13;;
24801;SDS011;12898;50.520;12.152;2023-07-13T05:05:09;8.77;;;5.40;;
24801;SDS011;12898;50.520;12.152;2023-07-13T05:07:35;6.38;;;4.43;;
24801;SDS011;12898;50.520;12.152;2023-07-13T05:10:01;5.80;;;4.22;;
24801;SDS011;12898;50.520;12.152;2023-07-13T05:12:28;9.02;;;4.63;;
24801;SDS011;12898;50.520;12.152;2023-07-13T05:14:55;6.15;;;4.25;;
24801;SDS011;12898;50.520;12.152;2023-07-13T05:17:20;10.15;;;4.45;;
24801;SDS011;12898;50.520;12.152;2023-07-13T05:19:46;13.02;;;4.82;;
24801;SDS011;12898;50.520;12.152;2023-07-13T05:22:12;7.20;;;4.20;;
24801;SDS011;12898;50.520;12.152;2023-07-13T05:24:38;5.88;;;3.78;;
24801;SDS011;12898;50.520;12.152;2023-07-13T05:27:03;6.55;;;4.07;;
24801;SDS011;12898;50.520;12.152;2023-07-13T05:29:29;5.63;;;3.47;;
24801;SDS011;12898;50.520;12.152;2023-07-13T05:31:55;6.25;;;3.85;;
24801;SDS011;12898;50.520;12.152;2023-07-13T05:34:21;10.25;;;4.10;;
24801;SDS011;12898;50.520;12.152;2023-07-13T05:36:47;6.75;;;3.45;;
24801;SDS011;12898;50.520;12.152;2023-07-13T05:39:14;3.38;;;2.90;;
24801;SDS011;12898;50.520;12.152;2023-07-13T05:41:40;4.80;;;3.00;;
24801;SDS011;12898;50.520;12.152;2023-07-13T05:44:06;5.63;;;3.38;;
24801;SDS011;12898;50.520;12.152;2023-07-13T05:46:32;4.80;;;3.40;;
24801;SDS011;12898;50.520;12.152;2023-07-13T05:48:57;5.05;;;3.30;;
24801;SDS011;12898;50.520;12.152;2023-07-13T05:51:23;5.22;;;3.20;;
24801;SDS011;12898;50.520;12.152;2023-07-13T05:53:49;6.53;;;3.70;;
24801;SDS011;12898;50.520;12.152;2023-07-13T05:56:14;6.80;;;3.35;;
24801;SDS011;12898;50.520;12.152;2023-07-13T05:58:40;5.53;;;3.28;;
24801;SDS011;12898;50.520;12.152;2023-07-13T06:01:08;6.38;;;2.85;;
24801;SDS011;12898;50.520;12.152;2023-07-13T06:03:37;9.02;;;2.88;;
24801;SDS011;12898;50.520;12.152;2023-07-13T06:06:03;4.60;;;2.63;;
24801;SDS011;12898;50.520;12.152;2023-07-13T06:08:31;4.90;;;3.00;;
24801;SDS011;12898;50.520;12.152;2023-07-13T06:11:08;6.07;;;2.88;;
24801;SDS011;12898;50.520;12.152;2023-07-13T06:13:42;5.43;;;2.70;;
24801;SDS011;12898;50.520;12.152;2023-07-13T06:16:08;3.20;;;2.58;;
24801;SDS011;12898;50.520;12.152;2023-07-13T06:18:34;4.53;;;3.00;;
24801;SDS011;12898;50.520;12.152;2023-07-13T06:21:04;5.82;;;2.50;;
24801;SDS011;12898;50.520;12.152;2023-07-13T06:23:35;3.15;;;2.30;;
24801;SDS011;12898;50.520;12.152;2023-07-13T06:26:02;6.53;;;2.20;;
24801;SDS011;12898;50.520;12.152;2023-07-13T06:28:28;4.75;;;2.10;;
24801;SDS011;12898;50.520;12.152;2023-07-13T06:30:56;5.78;;;2.35;;
24801;SDS011;12898;50.520;12.152;2023-07-13T06:33:22;4.78;;;1.98;;
24801;SDS011;12898;50.520;12.152;2023-07-13T06:35:48;11.55;;;2.13;;
24801;SDS011;12898;50.520;12.152;2023-07-13T06:38:14;4.20;;;1.88;;
24801;SDS011;12898;50.520;12.152;2023-07-13T06:40:39;7.53;;;2.20;;
24801;SDS011;12898;50.520;12.152;2023-07-13T06:43:06;3.78;;;1.85;;
24801;SDS011;12898;50.520;12.152;2023-07-13T06:45:32;9.63;;;4.68;;
24801;SDS011;12898;50.520;12.152;2023-07-13T06:48:10;7.68;;;2.38;;
24801;SDS011;12898;50.520;12.152;2023-07-13T06:50:36;6.72;;;2.05;;
24801;SDS011;12898;50.520;12.152;2023-07-13T06:53:02;6.13;;;1.75;;
24801;SDS011;12898;50.520;12.152;2023-07-13T06:55:28;7.55;;;1.85;;
24801;SDS011;12898;50.520;12.152;2023-07-13T06:57:54;4.35;;;1.77;;
24801;SDS011;12898;50.520;12.152;2023-07-13T07:00:19;4.90;;;2.22;;
24801;SDS011;12898;50.520;12.152;2023-07-13T07:02:45;4.82;;;1.70;;
24801;SDS011;12898;50.520;12.152;2023-07-13T07:05:11;3.33;;;1.58;;
24801;SDS011;12898;50.520;12.152;2023-07-13T07:07:36;3.75;;;1.60;;
24801;SDS011;12898;50.520;12.152;2023-07-13T07:10:02;6.32;;;1.67;;
24801;SDS011;12898;50.520;12.152;2023-07-13T07:12:28;4.25;;;1.50;;
24801;SDS011;12898;50.520;12.152;2023-07-13T07:14:54;8.90;;;1.92;;
24801;SDS011;12898;50.520;12.152;2023-07-13T07:17:20;6.70;;;1.80;;
24801;SDS011;12898;50.520;12.152;2023-07-13T07:19:46;6.75;;;1.65;;
24801;SDS011;12898;50.520;12.152;2023-07-13T07:22:12;10.05;;;1.77;;
24801;SDS011;12898;50.520;12.152;2023-07-13T07:24:37;7.38;;;1.90;;
24801;SDS011;12898;50.520;12.152;2023-07-13T07:27:03;7.18;;;1.70;;
24801;SDS011;12898;50.520;12.152;2023-07-13T07:29:29;5.55;;;1.70;;
24801;SDS011;12898;50.520;12.152;2023-07-13T07:31:55;4.63;;;1.73;;
24801;SDS011;12898;50.520;12.152;2023-07-13T07:34:20;4.47;;;1.85;;
24801;SDS011;12898;50.520;12.152;2023-07-13T07:36:46;2.63;;;1.50;;
24801;SDS011;12898;50.520;12.152;2023-07-13T07:39:12;4.32;;;1.70;;
24801;SDS011;12898;50.520;12.152;2023-07-13T07:41:37;3.85;;;1.70;;
24801;SDS011;12898;50.520;12.152;2023-07-13T07:44:03;6.00;;;1.63;;
24801;SDS011;12898;50.520;12.152;2023-07-13T07:46:29;8.38;;;1.63;;
24801;SDS011;12898;50.520;12.152;2023-07-13T07:48:55;4.80;;;1.83;;
24801;SDS011;12898;50.520;12.152;2023-07-13T07:51:21;4.15;;;1.65;;
24801;SDS011;12898;50.520;12.152;2023-07-13T07:53:47;3.63;;;1.60;;
24801;SDS011;12898;50.520;12.152;2023-07-13T07:56:13;5.15;;;1.88;;
24801;SDS011;12898;50.520;12.152;2023-07-13T07:58:41;6.53;;;1.67;;
24801;SDS011;12898;50.520;12.152;2023-07-13T08:01:07;3.95;;;1.40;;
24801;SDS011;12898;50.520;12.152;2023-07-13T08:03:33;8.43;;;1.90;;
24801;SDS011;12898;50.520;12.152;2023-07-13T08:05:59;6.10;;;1.50;;
24801;SDS011;12898;50.520;12.152;2023-07-13T08:08:25;6.20;;;1.70;;
24801;SDS011;12898;50.520;12.152;2023-07-13T08:10:51;3.65;;;1.45;;
24801;SDS011;12898;50.520;12.152;2023-07-13T08:13:17;5.93;;;1.58;;
24801;SDS011;12898;50.520;12.152;2023-07-13T08:15:43;6.45;;;1.73;;
24801;SDS011;12898;50.520;12.152;2023-07-13T08:18:08;6.35;;;1.98;;
24801;SDS011;12898;50.520;12.152;2023-07-13T08:20:37;3.15;;;1.15;;
24801;SDS011;12898;50.520;12.152;2023-07-13T08:23:04;5.20;;;1.30;;
24801;SDS011;12898;50.520;12.152;2023-07-13T08:25:30;4.35;;;1.40;;
24801;SDS011;12898;50.520;12.152;2023-07-13T08:27:56;4.40;;;1.58;;
24801;SDS011;12898;50.520;12.152;2023-07-13T08:30:21;4.32;;;1.52;;
24801;SDS011;12898;50.520;12.152;2023-07-13T08:32:47;6.35;;;1.63;;
24801;SDS011;12898;50.520;12.152;2023-07-13T08:35:14;4.63;;;1.48;;
24801;SDS011;12898;50.520;12.152;2023-07-13T08:37:41;4.47;;;1.60;;
24801;SDS011;12898;50.520;12.152;2023-07-13T08:40:08;6.65;;;1.67;;
24801;SDS011;12898;50.520;12.152;2023-07-13T08:42:44;4.50;;;1.80;;
24801;SDS011;12898;50.520;12.152;2023-07-13T08:47:57;3.97;;;1.60;;
24801;SDS011;12898;50.520;12.152;2023-07-13T08:50:34;5.05;;;2.03;;
24801;SDS011;12898;50.520;12.152;2023-07-13T08:53:12;4.82;;;1.50;;
24801;SDS011;12898;50.520;12.152;2023-07-13T08:55:40;5.53;;;1.85;;
24801;SDS011;12898;50.520;12.152;2023-07-13T08:58:10;3.15;;;1.45;;
24801;SDS011;12898;50.520;12.152;2023-07-13T09:00:39;4.57;;;1.63;;
24801;SDS011;12898;50.520;12.152;2023-07-13T09:03:30;5.22;;;1.70;;
24801;SDS011;12898;50.520;12.152;2023-07-13T09:06:14;5.93;;;2.03;;
24801;SDS011;12898;50.520;12.152;2023-07-13T09:14:21;8.10;;;1.77;;
24801;SDS011;12898;50.520;12.152;2023-07-13T09:17:08;3.83;;;1.30;;
24801;SDS011;12898;50.520;12.152;2023-07-13T09:19:45;3.78;;;1.38;;
24801;SDS011;12898;50.520;12.152;2023-07-13T09:22:19;5.60;;;1.85;;
24801;SDS011;12898;50.520;12.152;2023-07-13T09:28:09;6.70;;;1.58;;
24801;SDS011;12898;50.520;12.152;2023-07-13T09:33:35;6.70;;;1.67;;
24801;SDS011;12898;50.520;12.152;2023-07-13T09:36:01;7.53;;;1.85;;
24801;SDS011;12898;50.520;12.152;2023-07-13T09:38:42;2.40;;;1.58;;
24801;SDS011;12898;50.520;12.152;2023-07-13T09:47:02;4.72;;;1.95;;
24801;SDS011;12898;50.520;12.152;2023-07-13T09:49:29;3.95;;;1.83;;
24801;SDS011;12898;50.520;12.152;2023-07-13T09:52:05;5.63;;;1.60;;
24801;SDS011;12898;50.520;12.152;2023-07-13T09:54:36;6.55;;;1.75;;
24801;SDS011;12898;50.520;12.152;2023-07-13T09:57:03;5.18;;;1.60;;
24801;SDS011;12898;50.520;12.152;2023-07-13T09:59:49;9.15;;;2.10;;
24801;SDS011;12898;50.520;12.152;2023-07-13T10:02:33;4.95;;;1.67;;
24801;SDS011;12898;50.520;12.152;2023-07-13T10:05:02;6.97;;;1.90;;
24801;SDS011;12898;50.520;12.152;2023-07-13T10:07:42;4.13;;;1.48;;
24801;SDS011;12898;50.520;12.152;2023-07-13T10:10:16;7.03;;;2.10;;
24801;SDS011;12898;50.520;12.152;2023-07-13T10:12:46;4.50;;;1.70;;
24801;SDS011;12898;50.520;12.152;2023-07-13T10:15:17;5.07;;;1.70;;
24801;SDS011;12898;50.520;12.152;2023-07-13T10:17:47;5.30;;;1.70;;
24801;SDS011;12898;50.520;12.152;2023-07-13T10:20:15;5.80;;;2.00;;
24801;SDS011;12898;50.520;12.152;2023-07-13T10:22:45;6.35;;;1.73;;
24801;SDS011;12898;50.520;12.152;2023-07-13T10:25:20;6.22;;;1.75;;
24801;SDS011;12898;50.520;12.152;2023-07-13T10:27:58;7.35;;;1.63;;
24801;SDS011;12898;50.520;12.152;2023-07-13T10:30:30;5.30;;;1.90;;
24801;SDS011;12898;50.520;12.152;2023-07-13T10:33:02;6.53;;;1.80;;
24801;SDS011;12898;50.520;12.152;2023-07-13T10:35:36;5.47;;;1.60;;
24801;SDS011;12898;50.520;12.152;2023-07-13T10:38:10;6.93;;;1.77;;
24801;SDS011;12898;50.520;12.152;2023-07-13T10:40:40;4.18;;;1.50;;
24801;SDS011;12898;50.520;12.152;2023-07-13T10:43:16;5.03;;;1.77;;
24801;SDS011;12898;50.520;12.152;2023-07-13T10:45:46;3.47;;;1.50;;
24801;SDS011;12898;50.520;12.152;2023-07-13T10:48:16;5.47;;;1.70;;
24801;SDS011;12898;50.520;12.152;2023-07-13T10:50:44;4.28;;;1.45;;
24801;SDS011;12898;50.520;12.152;2023-07-13T10:53:19;4.63;;;2.10;;
24801;SDS011;12898;50.520;12.152;2023-07-13T10:55:56;4.45;;;1.75;;
24801;SDS011;12898;50.520;12.152;2023-07-13T10:58:33;6.95;;;1.73;;
24801;SDS011;12898;50.520;12.152;2023-07-13T11:06:12;4.03;;;1.40;;
24801;SDS011;12898;50.520;12.152;2023-07-13T11:20:19;2.28;;;1.10;;
24801;SDS011;12898;50.520;12.152;2023-07-13T11:22:50;4.32;;;1.40;;
24801;SDS011;12898;50.520;12.152;2023-07-13T11:25:32;3.30;;;1.10;;
24801;SDS011;12898;50.520;12.152;2023-07-13T11:30:41;4.53;;;1.45;;
24801;SDS011;12898;50.520;12.152;2023-07-13T11:35:38;2.58;;;1.20;;
24801;SDS011;12898;50.520;12.152;2023-07-13T11:38:17;3.42;;;1.40;;
24801;SDS011;12898;50.520;12.152;2023-07-13T11:40:50;2.38;;;1.20;;
24801;SDS011;12898;50.520;12.152;2023-07-13T11:43:19;4.35;;;1.10;;
24801;SDS011;12898;50.520;12.152;2023-07-13T11:45:48;4.55;;;1.50;;
24801;SDS011;12898;50.520;12.152;2023-07-13T11:48:17;2.78;;;1.20;;
24801;SDS011;12898;50.520;12.152;2023-07-13T11:51:13;2.65;;;1.45;;
24801;SDS011;12898;50.520;12.152;2023-07-13T11:53:51;4.28;;;1.30;;
24801;SDS011;12898;50.520;12.152;2023-07-13T11:56:19;4.07;;;1.40;;
24801;SDS011;12898;50.520;12.152;2023-07-13T11:58:48;3.85;;;1.50;;
24801;SDS011;12898;50.520;12.152;2023-07-13T12:01:27;3.15;;;1.20;;
24801;SDS011;12898;50.520;12.152;2023-07-13T12:03:57;5.15;;;1.70;;
24801;SDS011;12898;50.520;12.152;2023-07-13T12:06:32;4.55;;;1.27;;
24801;SDS011;12898;50.520;12.152;2023-07-13T12:09:11;3.80;;;1.35;;
24801;SDS011;12898;50.520;12.152;2023-07-13T12:11:41;3.85;;;1.30;;
24801;SDS011;12898;50.520;12.152;2023-07-13T12:14:17;4.80;;;1.50;;
24801;SDS011;12898;50.520;12.152;2023-07-13T12:16:44;2.78;;;1.17;;
24801;SDS011;12898;50.520;12.152;2023-07-13T12:19:17;2.75;;;1.10;;
24801;SDS011;12898;50.520;12.152;2023-07-13T12:21:46;2.75;;;1.35;;
24801;SDS011;12898;50.520;12.152;2023-07-13T12:24:13;4.18;;;1.27;;
24801;SDS011;12898;50.520;12.152;2023-07-13T12:26:42;4.10;;;1.40;;
24801;SDS011;12898;50.520;12.152;2023-07-13T12:29:10;4.88;;;1.40;;
24801;SDS011;12898;50.520;12.152;2023-07-13T12:31:43;3.45;;;1.30;;
24801;SDS011;12898;50.520;12.152;2023-07-13T12:34:12;3.45;;;1.30;;
24801;SDS011;12898;50.520;12.152;2023-07-13T12:37:00;2.63;;;1.08;;
24801;SDS011;12898;50.520;12.152;2023-07-13T12:42:19;3.67;;;1.23;;
24801;SDS011;12898;50.520;12.152;2023-07-13T12:44:56;1.52;;;1.00;;
24801;SDS011;12898;50.520;12.152;2023-07-13T12:47:29;2.92;;;1.10;;
24801;SDS011;12898;50.520;12.152;2023-07-13T12:49:57;3.80;;;1.27;;
24801;SDS011;12898;50.520;12.152;2023-07-13T12:52:30;1.65;;;1.10;;
24801;SDS011;12898;50.520;12.152;2023-07-13T12:55:03;1.38;;;1.05;;
24801;SDS011;12898;50.520;12.152;2023-07-13T12:57:40;1.33;;;0.82;;
24801;SDS011;12898;50.520;12.152;2023-07-13T13:05:58;2.72;;;0.85;;
24801;SDS011;12898;50.520;12.152;2023-07-13T13:08:27;0.70;;;0.70;;
24801;SDS011;12898;50.520;12.152;2023-07-13T13:10:55;3.22;;;0.70;;
24801;SDS011;12898;50.520;12.152;2023-07-13T13:13:21;1.67;;;0.77;;
24801;SDS011;12898;50.520;12.152;2023-07-13T13:15:47;1.42;;;0.80;;
24801;SDS011;12898;50.520;12.152;2023-07-13T13:18:19;2.03;;;0.80;;
24801;SDS011;12898;50.520;12.152;2023-07-13T13:20:48;2.15;;;0.80;;
24801;SDS011;12898;50.520;12.152;2023-07-13T13:23:16;2.80;;;0.80;;
24801;SDS011;12898;50.520;12.152;2023-07-13T13:25:45;1.70;;;0.95;;
24801;SDS011;12898;50.520;12.152;2023-07-13T13:28:14;1.38;;;0.80;;
24801;SDS011;12898;50.520;12.152;2023-07-13T13:30:43;1.13;;;0.47;;
24801;SDS011;12898;50.520;12.152;2023-07-13T13:33:11;6.20;;;0.90;;
24801;SDS011;12898;50.520;12.152;2023-07-13T13:35:38;1.20;;;0.70;;
24801;SDS011;12898;50.520;12.152;2023-07-13T13:38:26;1.80;;;0.90;;
24801;SDS011;12898;50.520;12.152;2023-07-13T13:40:52;1.70;;;0.70;;
24801;SDS011;12898;50.520;12.152;2023-07-13T13:43:21;2.65;;;0.73;;
24801;SDS011;12898;50.520;12.152;2023-07-13T13:45:52;2.08;;;1.00;;
24801;SDS011;12898;50.520;12.152;2023-07-13T13:48:25;1.08;;;0.70;;
24801;SDS011;12898;50.520;12.152;2023-07-13T13:50:57;2.10;;;0.70;;
24801;SDS011;12898;50.520;12.152;2023-07-13T13:53:24;1.10;;;0.60;;
24801;SDS011;12898;50.520;12.152;2023-07-13T13:55:51;1.08;;;0.57;;
24801;SDS011;12898;50.520;12.152;2023-07-13T13:58:17;2.30;;;1.00;;
24801;SDS011;12898;50.520;12.152;2023-07-13T14:00:44;3.35;;;0.50;;
24801;SDS011;12898;50.520;12.152;2023-07-13T14:03:14;3.33;;;0.77;;
24801;SDS011;12898;50.520;12.152;2023-07-13T14:05:43;1.33;;;0.60;;
24801;SDS011;12898;50.520;12.152;2023-07-13T14:08:15;1.38;;;0.88;;
24801;SDS011;12898;50.520;12.152;2023-07-13T14:10:45;2.20;;;1.10;;
24801;SDS011;12898;50.520;12.152;2023-07-13T14:13:21;2.05;;;1.08;;
24801;SDS011;12898;50.520;12.152;2023-07-13T14:15:52;2.35;;;1.30;;
24801;SDS011;12898;50.520;12.152;2023-07-13T14:18:19;1.75;;;1.40;;
24801;SDS011;12898;50.520;12.152;2023-07-13T14:20:45;3.10;;;1.40;;
24801;SDS011;12898;50.520;12.152;2023-07-13T14:23:13;5.47;;;1.50;;
24801;SDS011;12898;50.520;12.152;2023-07-13T14:25:40;3.45;;;1.23;;
24801;SDS011;12898;50.520;12.152;2023-07-13T14:28:23;3.88;;;0.95;;
24801;SDS011;12898;50.520;12.152;2023-07-13T14:30:51;3.28;;;0.80;;
24801;SDS011;12898;50.520;12.152;2023-07-13T14:33:19;1.58;;;0.75;;
24801;SDS011;12898;50.520;12.152;2023-07-13T14:35:45;4.00;;;1.00;;
24801;SDS011;12898;50.520;12.152;2023-07-13T14:38:13;4.30;;;1.00;;
24801;SDS011;12898;50.520;12.152;2023-07-13T14:40:43;2.40;;;0.75;;
24801;SDS011;12898;50.520;12.152;2023-07-13T14:43:10;1.60;;;0.77;;
24801;SDS011;12898;50.520;12.152;2023-07-13T14:45:38;2.78;;;0.70;;
24801;SDS011;12898;50.520;12.152;2023-07-13T14:48:17;3.88;;;1.90;;
24801;SDS011;12898;50.520;12.152;2023-07-13T14:50:57;2.58;;;0.90;;
24801;SDS011;12898;50.520;12.152;2023-07-13T14:53:27;4.05;;;0.93;;
24801;SDS011;12898;50.520;12.152;2023-07-13T14:55:53;1.58;;;0.82;;
24801;SDS011;12898;50.520;12.152;2023-07-13T14:58:19;2.20;;;0.95;;
24801;SDS011;12898;50.520;12.152;2023-07-13T15:00:44;1.83;;;0.95;;
24801;SDS011;12898;50.520;12.152;2023-07-13T15:03:21;4.00;;;0.90;;
24801;SDS011;12898;50.520;12.152;2023-07-13T15:05:50;2.72;;;0.95;;
24801;SDS011;12898;50.520;12.152;2023-07-13T15:08:18;1.17;;;0.88;;
24801;SDS011;12898;50.520;12.152;2023-07-13T15:10:43;2.10;;;0.85;;
24801;SDS011;12898;50.520;12.152;2023-07-13T15:13:14;5.80;;;1.27;;
24801;SDS011;12898;50.520;12.152;2023-07-13T15:15:43;3.55;;;1.17;;
24801;SDS011;12898;50.520;12.152;2023-07-13T15:18:12;1.92;;;0.90;;
24801;SDS011;12898;50.520;12.152;2023-07-13T15:20:42;4.03;;;1.10;;
24801;SDS011;12898;50.520;12.152;2023-07-13T15:23:10;5.57;;;1.23;;
24801;SDS011;12898;50.520;12.152;2023-07-13T15:25:37;4.82;;;1.40;;
24801;SDS011;12898;50.520;12.152;2023-07-13T15:28:03;4.38;;;1.38;;
24801;SDS011;12898;50.520;12.152;2023-07-13T15:30:29;4.70;;;1.25;;
24801;SDS011;12898;50.520;12.152;2023-07-13T15:33:12;2.33;;;1.13;;